アトランタ の空港の天気 - METARとTAF

ハーツフィールド・ジャクソン・アトランタ国際空港 ( KATL / ATL ) - アメリカ ジョージア州アトランタ
飛行場実況気象(Metar)
観測時間07/17 04:52 EDT (07/17 08:52 UTC)
風向・風速南西 2m/s
視程6450m
天気現象もや
全天の8割程度の雲 雲底高度 120m
全天を覆う雲 雲底高度 5490m
気温22.8℃
湿度94%
気圧1015.1hPa
METARKATL 170852Z 23003KT 4SM BR BKN004 OVC180 23/22 A3001 RMK AO2 SLP151 CIG 002V005 T02280217 56009
過去の天気等 Google飛行場航空写真 Wunderground天気予報

過去48時間のMETAR

飛行場予報(TAF)
発表時間: 7/17 03:49 EDT (7/17 07:49 UTC)
予報対象時間: 17日4時 EDT ~ 18日8時 EDT
風向・風速西 2m/s
視程10km以上
少しの雲 雲底高度 90m
全天の8割程度の雲 雲底高度 180m
17日4時 EDT ~ 17日8時 EDT に一時的に
視程8050m
天気現象もや
全天の8割程度の雲 雲底高度 120m
17日10時 EDT から
風向・風速西 3m/s
視程10km以上
全天の4割程度の雲 雲底高度 240m
全天の8割程度の雲 雲底高度 460m
全天の8割程度の雲 雲底高度 910m
17日12時 EDT から
風向・風速西 3m/s
視程10km以上
天気現象周辺でしゅう雨
全天の8割程度の雲 雲底高度 1070m
17日14時 EDT から 確率 30% で
視程4830m
天気現象雷雨 もや
全天の8割程度の積乱雲 雲底高度 760m
17日22時 EDT から
風向・風速北西 3m/s
視程10km以上
全天の4割程度の雲 雲底高度 1220m
全天の8割程度の雲 雲底高度 3050m
KATL 170749Z 1708/1812 27004KT P6SM FEW003 BKN006
TEMPO 1708/1712 5SM BR BKN004
FM171400 28005KT P6SM SCT008 BKN015 BKN030
FM171600 28006KT P6SM VCSH BKN035
PROB30 1718/1724 3SM TSRA BR BKN025CB
FM180200 31005KT P6SM SCT040 BKN100